sensor_id;sensor_type;location;lat;lon;timestamp;P1;durP1;ratioP1;P2;durP2;ratioP2
38779;SDS011;29273;49.962;9.768;2024-03-02T00:02:24;8.60;;;6.28;;
38779;SDS011;29273;49.962;9.768;2024-03-02T00:04:50;9.48;;;6.57;;
38779;SDS011;29273;49.962;9.768;2024-03-02T00:07:16;8.30;;;6.22;;
38779;SDS011;29273;49.962;9.768;2024-03-02T00:09:42;9.00;;;6.38;;
38779;SDS011;29273;49.962;9.768;2024-03-02T00:12:08;8.70;;;6.22;;
38779;SDS011;29273;49.962;9.768;2024-03-02T00:14:33;8.35;;;6.38;;
38779;SDS011;29273;49.962;9.768;2024-03-02T00:17:02;7.03;;;5.88;;
38779;SDS011;29273;49.962;9.768;2024-03-02T00:19:28;9.65;;;6.53;;
38779;SDS011;29273;49.962;9.768;2024-03-02T00:21:54;7.88;;;6.10;;
38779;SDS011;29273;49.962;9.768;2024-03-02T00:26:58;7.82;;;5.55;;
38779;SDS011;29273;49.962;9.768;2024-03-02T00:29:24;7.47;;;5.68;;
38779;SDS011;29273;49.962;9.768;2024-03-02T00:31:50;7.97;;;5.70;;
38779;SDS011;29273;49.962;9.768;2024-03-02T00:34:17;8.95;;;5.95;;
38779;SDS011;29273;49.962;9.768;2024-03-02T00:36:42;7.70;;;5.93;;
38779;SDS011;29273;49.962;9.768;2024-03-02T00:39:08;7.95;;;5.85;;
38779;SDS011;29273;49.962;9.768;2024-03-02T00:41:40;7.18;;;5.40;;
38779;SDS011;29273;49.962;9.768;2024-03-02T00:44:07;8.82;;;6.57;;
38779;SDS011;29273;49.962;9.768;2024-03-02T00:46:37;7.50;;;5.78;;
38779;SDS011;29273;49.962;9.768;2024-03-02T00:51:36;7.05;;;6.07;;
38779;SDS011;29273;49.962;9.768;2024-03-02T00:54:03;8.05;;;5.63;;
38779;SDS011;29273;49.962;9.768;2024-03-02T00:56:30;7.75;;;6.00;;
38779;SDS011;29273;49.962;9.768;2024-03-02T00:58:57;7.32;;;5.45;;
38779;SDS011;29273;49.962;9.768;2024-03-02T01:01:23;6.93;;;5.15;;
38779;SDS011;29273;49.962;9.768;2024-03-02T01:03:48;7.07;;;5.43;;
38779;SDS011;29273;49.962;9.768;2024-03-02T01:06:15;6.28;;;5.15;;
38779;SDS011;29273;49.962;9.768;2024-03-02T01:08:41;7.55;;;5.50;;
38779;SDS011;29273;49.962;9.768;2024-03-02T01:11:07;6.32;;;5.53;;
38779;SDS011;29273;49.962;9.768;2024-03-02T01:13:32;7.45;;;5.20;;
38779;SDS011;29273;49.962;9.768;2024-03-02T01:15:58;8.10;;;5.90;;
38779;SDS011;29273;49.962;9.768;2024-03-02T01:18:24;7.47;;;5.30;;
38779;SDS011;29273;49.962;9.768;2024-03-02T01:20:49;6.72;;;5.43;;
38779;SDS011;29273;49.962;9.768;2024-03-02T01:23:24;8.68;;;5.35;;
38779;SDS011;29273;49.962;9.768;2024-03-02T01:25:50;8.52;;;5.25;;
38779;SDS011;29273;49.962;9.768;2024-03-02T01:28:17;7.90;;;5.05;;
38779;SDS011;29273;49.962;9.768;2024-03-02T01:30:44;6.88;;;5.68;;
38779;SDS011;29273;49.962;9.768;2024-03-02T01:33:10;6.07;;;5.07;;
38779;SDS011;29273;49.962;9.768;2024-03-02T01:35:35;7.82;;;5.45;;
38779;SDS011;29273;49.962;9.768;2024-03-02T01:38:01;6.75;;;4.60;;
38779;SDS011;29273;49.962;9.768;2024-03-02T01:40:27;6.90;;;5.43;;
38779;SDS011;29273;49.962;9.768;2024-03-02T01:42:53;6.40;;;5.22;;
38779;SDS011;29273;49.962;9.768;2024-03-02T01:45:19;6.85;;;5.50;;
38779;SDS011;29273;49.962;9.768;2024-03-02T01:47:45;8.82;;;6.18;;
38779;SDS011;29273;49.962;9.768;2024-03-02T01:50:11;8.70;;;6.07;;
38779;SDS011;29273;49.962;9.768;2024-03-02T01:52:37;7.53;;;5.60;;
38779;SDS011;29273;49.962;9.768;2024-03-02T01:55:03;9.05;;;6.13;;
38779;SDS011;29273;49.962;9.768;2024-03-02T01:57:29;6.60;;;5.45;;
38779;SDS011;29273;49.962;9.768;2024-03-02T01:59:55;7.93;;;5.50;;
38779;SDS011;29273;49.962;9.768;2024-03-02T02:02:21;7.47;;;5.63;;
38779;SDS011;29273;49.962;9.768;2024-03-02T02:04:46;7.20;;;5.78;;
38779;SDS011;29273;49.962;9.768;2024-03-02T02:07:12;8.10;;;5.93;;
38779;SDS011;29273;49.962;9.768;2024-03-02T02:09:42;7.57;;;6.10;;
38779;SDS011;29273;49.962;9.768;2024-03-02T02:12:08;7.20;;;5.72;;
38779;SDS011;29273;49.962;9.768;2024-03-02T02:14:34;6.85;;;5.53;;
38779;SDS011;29273;49.962;9.768;2024-03-02T02:16:59;9.48;;;5.72;;
38779;SDS011;29273;49.962;9.768;2024-03-02T02:19:25;8.55;;;6.13;;
38779;SDS011;29273;49.962;9.768;2024-03-02T02:21:50;8.93;;;5.93;;
38779;SDS011;29273;49.962;9.768;2024-03-02T02:24:16;7.60;;;5.72;;
38779;SDS011;29273;49.962;9.768;2024-03-02T02:26:41;7.47;;;5.78;;
38779;SDS011;29273;49.962;9.768;2024-03-02T02:29:07;7.82;;;5.82;;
38779;SDS011;29273;49.962;9.768;2024-03-02T02:31:42;7.25;;;5.40;;
38779;SDS011;29273;49.962;9.768;2024-03-02T02:34:07;9.10;;;6.10;;
38779;SDS011;29273;49.962;9.768;2024-03-02T02:36:34;7.72;;;6.20;;
38779;SDS011;29273;49.962;9.768;2024-03-02T02:39:03;7.55;;;5.65;;
38779;SDS011;29273;49.962;9.768;2024-03-02T02:41:32;6.53;;;5.47;;
38779;SDS011;29273;49.962;9.768;2024-03-02T02:43:57;7.90;;;5.75;;
38779;SDS011;29273;49.962;9.768;2024-03-02T02:46:23;7.50;;;5.45;;
38779;SDS011;29273;49.962;9.768;2024-03-02T02:48:48;7.15;;;5.68;;
38779;SDS011;29273;49.962;9.768;2024-03-02T02:51:14;6.95;;;5.78;;
38779;SDS011;29273;49.962;9.768;2024-03-02T02:53:40;6.75;;;5.53;;
38779;SDS011;29273;49.962;9.768;2024-03-02T02:56:08;7.07;;;5.35;;
38779;SDS011;29273;49.962;9.768;2024-03-02T02:58:34;7.32;;;5.55;;
38779;SDS011;29273;49.962;9.768;2024-03-02T03:01:00;6.55;;;4.93;;
38779;SDS011;29273;49.962;9.768;2024-03-02T03:03:26;6.85;;;5.80;;
38779;SDS011;29273;49.962;9.768;2024-03-02T03:05:51;8.40;;;5.60;;
38779;SDS011;29273;49.962;9.768;2024-03-02T03:08:17;7.30;;;5.53;;
38779;SDS011;29273;49.962;9.768;2024-03-02T03:10:42;6.75;;;5.32;;
38779;SDS011;29273;49.962;9.768;2024-03-02T03:13:08;7.90;;;5.60;;
38779;SDS011;29273;49.962;9.768;2024-03-02T03:15:37;6.80;;;5.07;;
38779;SDS011;29273;49.962;9.768;2024-03-02T03:18:03;7.10;;;5.30;;
38779;SDS011;29273;49.962;9.768;2024-03-02T03:20:29;7.05;;;5.25;;
38779;SDS011;29273;49.962;9.768;2024-03-02T03:22:55;6.10;;;4.88;;
38779;SDS011;29273;49.962;9.768;2024-03-02T03:25:21;7.00;;;5.43;;
38779;SDS011;29273;49.962;9.768;2024-03-02T03:27:46;6.65;;;5.20;;
38779;SDS011;29273;49.962;9.768;2024-03-02T03:30:12;6.78;;;5.07;;
38779;SDS011;29273;49.962;9.768;2024-03-02T03:32:37;10.00;;;5.68;;
38779;SDS011;29273;49.962;9.768;2024-03-02T03:35:03;7.60;;;5.60;;
38779;SDS011;29273;49.962;9.768;2024-03-02T03:37:29;7.88;;;5.80;;
38779;SDS011;29273;49.962;9.768;2024-03-02T03:39:58;6.18;;;4.97;;
38779;SDS011;29273;49.962;9.768;2024-03-02T03:42:24;7.40;;;5.15;;
38779;SDS011;29273;49.962;9.768;2024-03-02T03:44:50;7.68;;;5.55;;
38779;SDS011;29273;49.962;9.768;2024-03-02T03:47:15;7.53;;;5.65;;
38779;SDS011;29273;49.962;9.768;2024-03-02T03:49:41;8.25;;;5.05;;
38779;SDS011;29273;49.962;9.768;2024-03-02T03:52:06;6.78;;;5.30;;
38779;SDS011;29273;49.962;9.768;2024-03-02T03:54:32;6.93;;;5.28;;
38779;SDS011;29273;49.962;9.768;2024-03-02T03:56:57;7.03;;;5.53;;
38779;SDS011;29273;49.962;9.768;2024-03-02T03:59:22;7.70;;;5.10;;
38779;SDS011;29273;49.962;9.768;2024-03-02T04:01:49;6.97;;;5.43;;
38779;SDS011;29273;49.962;9.768;2024-03-02T04:04:14;7.13;;;5.65;;
38779;SDS011;29273;49.962;9.768;2024-03-02T04:06:40;9.52;;;6.25;;
38779;SDS011;29273;49.962;9.768;2024-03-02T04:09:05;7.57;;;5.63;;
38779;SDS011;29273;49.962;9.768;2024-03-02T04:11:31;8.13;;;5.72;;
38779;SDS011;29273;49.962;9.768;2024-03-02T04:13:56;8.07;;;5.85;;
38779;SDS011;29273;49.962;9.768;2024-03-02T04:16:22;7.45;;;5.85;;
38779;SDS011;29273;49.962;9.768;2024-03-02T04:18:48;8.18;;;5.78;;
38779;SDS011;29273;49.962;9.768;2024-03-02T04:21:13;7.88;;;5.32;;
38779;SDS011;29273;49.962;9.768;2024-03-02T04:23:39;7.93;;;6.00;;
38779;SDS011;29273;49.962;9.768;2024-03-02T04:26:04;8.48;;;6.10;;
38779;SDS011;29273;49.962;9.768;2024-03-02T04:28:29;8.60;;;6.10;;
38779;SDS011;29273;49.962;9.768;2024-03-02T04:30:55;8.10;;;6.18;;
38779;SDS011;29273;49.962;9.768;2024-03-02T04:33:20;8.63;;;6.38;;
38779;SDS011;29273;49.962;9.768;2024-03-02T04:35:46;9.55;;;6.60;;
38779;SDS011;29273;49.962;9.768;2024-03-02T04:38:11;9.05;;;6.47;;
38779;SDS011;29273;49.962;9.768;2024-03-02T04:40:37;9.23;;;6.32;;
38779;SDS011;29273;49.962;9.768;2024-03-02T04:43:02;7.50;;;5.63;;
38779;SDS011;29273;49.962;9.768;2024-03-02T04:45:28;8.27;;;5.90;;
38779;SDS011;29273;49.962;9.768;2024-03-02T04:47:54;7.95;;;5.95;;
38779;SDS011;29273;49.962;9.768;2024-03-02T04:50:20;9.13;;;6.13;;
38779;SDS011;29273;49.962;9.768;2024-03-02T04:52:45;9.80;;;5.97;;
38779;SDS011;29273;49.962;9.768;2024-03-02T04:55:11;9.32;;;6.38;;
38779;SDS011;29273;49.962;9.768;2024-03-02T04:57:42;7.47;;;5.97;;
38779;SDS011;29273;49.962;9.768;2024-03-02T05:00:08;13.27;;;6.60;;
38779;SDS011;29273;49.962;9.768;2024-03-02T05:02:35;7.15;;;5.80;;
38779;SDS011;29273;49.962;9.768;2024-03-02T05:05:01;7.95;;;5.63;;
38779;SDS011;29273;49.962;9.768;2024-03-02T05:07:27;8.25;;;5.97;;
38779;SDS011;29273;49.962;9.768;2024-03-02T05:09:53;7.35;;;5.65;;
38779;SDS011;29273;49.962;9.768;2024-03-02T05:12:18;6.93;;;5.28;;
38779;SDS011;29273;49.962;9.768;2024-03-02T05:14:44;8.50;;;5.95;;
38779;SDS011;29273;49.962;9.768;2024-03-02T05:17:10;7.57;;;5.70;;
38779;SDS011;29273;49.962;9.768;2024-03-02T05:19:36;6.28;;;5.30;;
38779;SDS011;29273;49.962;9.768;2024-03-02T05:22:01;8.27;;;5.75;;
38779;SDS011;29273;49.962;9.768;2024-03-02T05:24:28;8.52;;;5.25;;
38779;SDS011;29273;49.962;9.768;2024-03-02T05:26:53;6.50;;;5.03;;
38779;SDS011;29273;49.962;9.768;2024-03-02T05:29:19;11.82;;;5.50;;
38779;SDS011;29273;49.962;9.768;2024-03-02T05:31:44;7.45;;;5.10;;
38779;SDS011;29273;49.962;9.768;2024-03-02T05:34:10;7.15;;;5.65;;
38779;SDS011;29273;49.962;9.768;2024-03-02T05:36:35;8.32;;;5.90;;
38779;SDS011;29273;49.962;9.768;2024-03-02T05:39:01;8.23;;;5.05;;
38779;SDS011;29273;49.962;9.768;2024-03-02T05:41:29;6.70;;;5.32;;
38779;SDS011;29273;49.962;9.768;2024-03-02T05:43:55;5.15;;;4.60;;
38779;SDS011;29273;49.962;9.768;2024-03-02T05:46:20;5.47;;;4.60;;
38779;SDS011;29273;49.962;9.768;2024-03-02T05:48:47;6.18;;;4.38;;
38779;SDS011;29273;49.962;9.768;2024-03-02T05:51:12;6.47;;;4.65;;
38779;SDS011;29273;49.962;9.768;2024-03-02T05:53:38;5.47;;;4.45;;
38779;SDS011;29273;49.962;9.768;2024-03-02T05:56:04;4.88;;;4.13;;
38779;SDS011;29273;49.962;9.768;2024-03-02T05:58:30;4.78;;;4.22;;
38779;SDS011;29273;49.962;9.768;2024-03-02T06:00:59;4.97;;;4.40;;
38779;SDS011;29273;49.962;9.768;2024-03-02T06:03:24;5.25;;;4.43;;
38779;SDS011;29273;49.962;9.768;2024-03-02T06:05:50;6.00;;;4.43;;
38779;SDS011;29273;49.962;9.768;2024-03-02T06:08:16;6.25;;;4.65;;
38779;SDS011;29273;49.962;9.768;2024-03-02T06:10:41;5.70;;;4.85;;
38779;SDS011;29273;49.962;9.768;2024-03-02T06:13:07;7.70;;;4.70;;
38779;SDS011;29273;49.962;9.768;2024-03-02T06:15:32;8.48;;;4.68;;
38779;SDS011;29273;49.962;9.768;2024-03-02T06:17:59;4.75;;;4.00;;
38779;SDS011;29273;49.962;9.768;2024-03-02T06:20:25;5.45;;;4.55;;
38779;SDS011;29273;49.962;9.768;2024-03-02T06:22:51;5.13;;;4.05;;
38779;SDS011;29273;49.962;9.768;2024-03-02T06:25:17;4.97;;;4.22;;
38779;SDS011;29273;49.962;9.768;2024-03-02T06:27:42;4.95;;;4.45;;
38779;SDS011;29273;49.962;9.768;2024-03-02T06:30:08;5.53;;;4.20;;
38779;SDS011;29273;49.962;9.768;2024-03-02T06:32:34;4.53;;;4.13;;
38779;SDS011;29273;49.962;9.768;2024-03-02T06:35:00;5.90;;;4.80;;
38779;SDS011;29273;49.962;9.768;2024-03-02T06:37:25;4.70;;;4.18;;
38779;SDS011;29273;49.962;9.768;2024-03-02T06:39:50;4.93;;;4.30;;
38779;SDS011;29273;49.962;9.768;2024-03-02T06:42:16;5.28;;;4.43;;
38779;SDS011;29273;49.962;9.768;2024-03-02T06:44:41;6.47;;;4.53;;
38779;SDS011;29273;49.962;9.768;2024-03-02T06:47:07;6.35;;;5.28;;
38779;SDS011;29273;49.962;9.768;2024-03-02T06:49:32;6.43;;;4.30;;
38779;SDS011;29273;49.962;9.768;2024-03-02T06:51:58;6.15;;;5.10;;
38779;SDS011;29273;49.962;9.768;2024-03-02T06:54:23;7.70;;;5.57;;
38779;SDS011;29273;49.962;9.768;2024-03-02T06:56:48;6.00;;;4.68;;
38779;SDS011;29273;49.962;9.768;2024-03-02T06:59:14;7.60;;;5.28;;
38779;SDS011;29273;49.962;9.768;2024-03-02T07:01:39;9.35;;;4.88;;
38779;SDS011;29273;49.962;9.768;2024-03-02T07:04:05;8.95;;;5.03;;
38779;SDS011;29273;49.962;9.768;2024-03-02T07:06:31;6.25;;;4.93;;
38779;SDS011;29273;49.962;9.768;2024-03-02T07:08:57;7.15;;;5.10;;
38779;SDS011;29273;49.962;9.768;2024-03-02T07:11:22;7.95;;;5.20;;
38779;SDS011;29273;49.962;9.768;2024-03-02T07:13:48;9.73;;;5.68;;
38779;SDS011;29273;49.962;9.768;2024-03-02T07:16:13;6.20;;;5.10;;
38779;SDS011;29273;49.962;9.768;2024-03-02T07:18:55;6.00;;;4.90;;
38779;SDS011;29273;49.962;9.768;2024-03-02T07:21:22;5.53;;;5.00;;
38779;SDS011;29273;49.962;9.768;2024-03-02T07:23:48;6.50;;;5.05;;
38779;SDS011;29273;49.962;9.768;2024-03-02T07:26:14;7.60;;;5.78;;
38779;SDS011;29273;49.962;9.768;2024-03-02T07:28:40;6.65;;;5.70;;
38779;SDS011;29273;49.962;9.768;2024-03-02T07:31:06;5.50;;;4.80;;
38779;SDS011;29273;49.962;9.768;2024-03-02T07:33:32;6.15;;;4.70;;
38779;SDS011;29273;49.962;9.768;2024-03-02T07:35:59;5.90;;;5.30;;
38779;SDS011;29273;49.962;9.768;2024-03-02T07:38:26;6.05;;;5.25;;
38779;SDS011;29273;49.962;9.768;2024-03-02T07:40:52;8.20;;;5.28;;
38779;SDS011;29273;49.962;9.768;2024-03-02T07:43:18;6.70;;;5.65;;
38779;SDS011;29273;49.962;9.768;2024-03-02T07:45:44;8.38;;;5.82;;
38779;SDS011;29273;49.962;9.768;2024-03-02T07:48:10;6.45;;;5.68;;
38779;SDS011;29273;49.962;9.768;2024-03-02T07:50:36;6.80;;;5.43;;
38779;SDS011;29273;49.962;9.768;2024-03-02T07:53:02;7.10;;;5.47;;
38779;SDS011;29273;49.962;9.768;2024-03-02T07:55:29;9.05;;;5.55;;
38779;SDS011;29273;49.962;9.768;2024-03-02T07:57:55;7.00;;;5.82;;
38779;SDS011;29273;49.962;9.768;2024-03-02T08:00:21;6.85;;;5.72;;
38779;SDS011;29273;49.962;9.768;2024-03-02T08:02:48;7.05;;;5.85;;
38779;SDS011;29273;49.962;9.768;2024-03-02T08:05:16;7.15;;;5.70;;
38779;SDS011;29273;49.962;9.768;2024-03-02T08:07:43;6.28;;;5.43;;
38779;SDS011;29273;49.962;9.768;2024-03-02T08:10:09;6.25;;;5.47;;
38779;SDS011;29273;49.962;9.768;2024-03-02T08:12:35;7.20;;;5.53;;
38779;SDS011;29273;49.962;9.768;2024-03-02T08:15:00;5.72;;;5.05;;
38779;SDS011;29273;49.962;9.768;2024-03-02T08:17:26;6.13;;;5.40;;
38779;SDS011;29273;49.962;9.768;2024-03-02T08:19:51;6.25;;;5.25;;
38779;SDS011;29273;49.962;9.768;2024-03-02T08:22:17;6.65;;;5.60;;
38779;SDS011;29273;49.962;9.768;2024-03-02T08:24:44;5.88;;;4.95;;
38779;SDS011;29273;49.962;9.768;2024-03-02T08:27:09;6.50;;;5.22;;
38779;SDS011;29273;49.962;9.768;2024-03-02T08:29:35;6.30;;;5.63;;
38779;SDS011;29273;49.962;9.768;2024-03-02T08:32:00;6.72;;;5.75;;
38779;SDS011;29273;49.962;9.768;2024-03-02T08:34:26;7.10;;;5.55;;
38779;SDS011;29273;49.962;9.768;2024-03-02T08:36:51;6.30;;;5.35;;
38779;SDS011;29273;49.962;9.768;2024-03-02T08:39:17;6.10;;;5.32;;
38779;SDS011;29273;49.962;9.768;2024-03-02T08:41:44;6.13;;;5.35;;
38779;SDS011;29273;49.962;9.768;2024-03-02T08:44:10;6.22;;;5.55;;
38779;SDS011;29273;49.962;9.768;2024-03-02T08:46:37;6.13;;;5.53;;
38779;SDS011;29273;49.962;9.768;2024-03-02T08:49:03;6.05;;;5.40;;
38779;SDS011;29273;49.962;9.768;2024-03-02T08:51:29;6.80;;;5.85;;
38779;SDS011;29273;49.962;9.768;2024-03-02T08:53:55;7.82;;;6.50;;
38779;SDS011;29273;49.962;9.768;2024-03-02T08:56:22;7.45;;;6.25;;
38779;SDS011;29273;49.962;9.768;2024-03-02T08:58:49;7.55;;;6.10;;
38779;SDS011;29273;49.962;9.768;2024-03-02T09:01:14;7.43;;;6.10;;
38779;SDS011;29273;49.962;9.768;2024-03-02T09:03:41;8.77;;;6.68;;
38779;SDS011;29273;49.962;9.768;2024-03-02T09:06:09;7.68;;;6.05;;
38779;SDS011;29273;49.962;9.768;2024-03-02T09:08:35;7.63;;;6.13;;
38779;SDS011;29273;49.962;9.768;2024-03-02T09:11:08;7.40;;;6.40;;
38779;SDS011;29273;49.962;9.768;2024-03-02T09:13:33;7.60;;;6.32;;
38779;SDS011;29273;49.962;9.768;2024-03-02T09:15:59;8.18;;;6.97;;
38779;SDS011;29273;49.962;9.768;2024-03-02T09:18:25;8.35;;;7.20;;
38779;SDS011;29273;49.962;9.768;2024-03-02T09:20:50;8.00;;;7.10;;
38779;SDS011;29273;49.962;9.768;2024-03-02T09:23:16;9.63;;;7.95;;
38779;SDS011;29273;49.962;9.768;2024-03-02T09:25:41;9.75;;;7.85;;
38779;SDS011;29273;49.962;9.768;2024-03-02T09:28:07;9.45;;;7.57;;
38779;SDS011;29273;49.962;9.768;2024-03-02T09:30:32;9.38;;;7.80;;
38779;SDS011;29273;49.962;9.768;2024-03-02T09:32:58;9.70;;;8.00;;
38779;SDS011;29273;49.962;9.768;2024-03-02T09:35:24;10.05;;;8.05;;
38779;SDS011;29273;49.962;9.768;2024-03-02T09:37:49;10.77;;;8.10;;
38779;SDS011;29273;49.962;9.768;2024-03-02T09:40:14;9.20;;;7.60;;
38779;SDS011;29273;49.962;9.768;2024-03-02T09:42:41;8.70;;;7.20;;
38779;SDS011;29273;49.962;9.768;2024-03-02T09:45:08;8.88;;;7.28;;
38779;SDS011;29273;49.962;9.768;2024-03-02T09:47:34;11.20;;;7.38;;
38779;SDS011;29273;49.962;9.768;2024-03-02T09:49:59;9.48;;;7.30;;
38779;SDS011;29273;49.962;9.768;2024-03-02T09:52:28;9.02;;;7.32;;
38779;SDS011;29273;49.962;9.768;2024-03-02T09:54:53;8.65;;;7.40;;
38779;SDS011;29273;49.962;9.768;2024-03-02T09:57:19;8.35;;;6.93;;
38779;SDS011;29273;49.962;9.768;2024-03-02T09:59:44;8.02;;;6.97;;
38779;SDS011;29273;49.962;9.768;2024-03-02T10:02:10;8.68;;;7.30;;
38779;SDS011;29273;49.962;9.768;2024-03-02T10:04:36;7.70;;;6.75;;
38779;SDS011;29273;49.962;9.768;2024-03-02T10:09:47;7.45;;;6.63;;
38779;SDS011;29273;49.962;9.768;2024-03-02T10:12:14;7.65;;;6.75;;
38779;SDS011;29273;49.962;9.768;2024-03-02T10:14:40;8.25;;;6.80;;
38779;SDS011;29273;49.962;9.768;2024-03-02T10:17:11;8.55;;;7.25;;
38779;SDS011;29273;49.962;9.768;2024-03-02T10:19:37;8.88;;;6.50;;
38779;SDS011;29273;49.962;9.768;2024-03-02T10:22:07;9.18;;;6.88;;
38779;SDS011;29273;49.962;9.768;2024-03-02T10:27:46;8.13;;;6.93;;
38779;SDS011;29273;49.962;9.768;2024-03-02T10:29:52;7.40;;;6.60;;
38779;SDS011;29273;49.962;9.768;2024-03-02T10:32:18;8.13;;;6.93;;
38779;SDS011;29273;49.962;9.768;2024-03-02T10:34:47;7.15;;;6.10;;
38779;SDS011;29273;49.962;9.768;2024-03-02T10:37:13;7.30;;;6.45;;
38779;SDS011;29273;49.962;9.768;2024-03-02T10:39:40;8.27;;;6.75;;
38779;SDS011;29273;49.962;9.768;2024-03-02T10:42:06;7.90;;;6.53;;
38779;SDS011;29273;49.962;9.768;2024-03-02T10:44:32;7.95;;;6.63;;
38779;SDS011;29273;49.962;9.768;2024-03-02T10:47:00;8.13;;;6.57;;
38779;SDS011;29273;49.962;9.768;2024-03-02T10:49:28;7.13;;;5.78;;
38779;SDS011;29273;49.962;9.768;2024-03-02T10:51:55;7.95;;;6.40;;
38779;SDS011;29273;49.962;9.768;2024-03-02T10:54:21;7.53;;;6.28;;
38779;SDS011;29273;49.962;9.768;2024-03-02T10:56:51;7.35;;;6.43;;
38779;SDS011;29273;49.962;9.768;2024-03-02T11:01:50;7.85;;;6.35;;
38779;SDS011;29273;49.962;9.768;2024-03-02T11:04:16;7.75;;;6.05;;
38779;SDS011;29273;49.962;9.768;2024-03-02T11:06:50;8.07;;;6.93;;
38779;SDS011;29273;49.962;9.768;2024-03-02T11:09:20;6.72;;;6.03;;
38779;SDS011;29273;49.962;9.768;2024-03-02T11:11:54;6.60;;;5.80;;
38779;SDS011;29273;49.962;9.768;2024-03-02T11:14:27;6.85;;;5.70;;
38779;SDS011;29273;49.962;9.768;2024-03-02T11:16:56;7.20;;;6.13;;
38779;SDS011;29273;49.962;9.768;2024-03-02T11:19:22;6.65;;;5.80;;
38779;SDS011;29273;49.962;9.768;2024-03-02T11:21:49;7.47;;;6.07;;
38779;SDS011;29273;49.962;9.768;2024-03-02T11:26:46;6.95;;;6.13;;
38779;SDS011;29273;49.962;9.768;2024-03-02T11:32:00;6.97;;;5.70;;
38779;SDS011;29273;49.962;9.768;2024-03-02T11:34:32;6.32;;;5.60;;
38779;SDS011;29273;49.962;9.768;2024-03-02T11:37:02;7.32;;;5.57;;
38779;SDS011;29273;49.962;9.768;2024-03-02T11:39:29;6.43;;;5.50;;
38779;SDS011;29273;49.962;9.768;2024-03-02T11:41:58;5.80;;;5.15;;
38779;SDS011;29273;49.962;9.768;2024-03-02T11:44:25;6.43;;;5.32;;
38779;SDS011;29273;49.962;9.768;2024-03-02T11:46:52;6.97;;;5.53;;
38779;SDS011;29273;49.962;9.768;2024-03-02T11:52:14;6.18;;;5.22;;
38779;SDS011;29273;49.962;9.768;2024-03-02T11:54:42;5.70;;;5.03;;
38779;SDS011;29273;49.962;9.768;2024-03-02T11:57:16;6.07;;;5.18;;
38779;SDS011;29273;49.962;9.768;2024-03-02T11:59:43;5.28;;;4.78;;
38779;SDS011;29273;49.962;9.768;2024-03-02T12:02:15;6.03;;;5.13;;
38779;SDS011;29273;49.962;9.768;2024-03-02T12:04:43;5.63;;;4.97;;
38779;SDS011;29273;49.962;9.768;2024-03-02T12:07:10;5.43;;;4.72;;
38779;SDS011;29273;49.962;9.768;2024-03-02T12:09:36;5.85;;;5.03;;
38779;SDS011;29273;49.962;9.768;2024-03-02T12:12:05;5.25;;;4.47;;
38779;SDS011;29273;49.962;9.768;2024-03-02T12:14:33;4.93;;;4.43;;
38779;SDS011;29273;49.962;9.768;2024-03-02T12:16:59;5.18;;;4.22;;
38779;SDS011;29273;49.962;9.768;2024-03-02T12:19:25;6.00;;;4.90;;
38779;SDS011;29273;49.962;9.768;2024-03-02T12:21:52;4.72;;;4.25;;
38779;SDS011;29273;49.962;9.768;2024-03-02T12:24:18;5.03;;;4.20;;
38779;SDS011;29273;49.962;9.768;2024-03-02T12:26:44;5.43;;;4.55;;
38779;SDS011;29273;49.962;9.768;2024-03-02T12:29:10;4.70;;;4.20;;
38779;SDS011;29273;49.962;9.768;2024-03-02T12:31:36;5.22;;;4.50;;
38779;SDS011;29273;49.962;9.768;2024-03-02T12:34:02;5.53;;;4.93;;
38779;SDS011;29273;49.962;9.768;2024-03-02T12:36:29;5.05;;;4.10;;
38779;SDS011;29273;49.962;9.768;2024-03-02T12:38:54;5.15;;;4.65;;
38779;SDS011;29273;49.962;9.768;2024-03-02T12:41:20;4.72;;;4.22;;
38779;SDS011;29273;49.962;9.768;2024-03-02T12:43:46;5.78;;;4.35;;
38779;SDS011;29273;49.962;9.768;2024-03-02T12:46:11;4.40;;;3.97;;
38779;SDS011;29273;49.962;9.768;2024-03-02T12:48:37;5.05;;;4.07;;
38779;SDS011;29273;49.962;9.768;2024-03-02T12:51:06;4.20;;;3.65;;
38779;SDS011;29273;49.962;9.768;2024-03-02T12:53:31;4.82;;;3.90;;
38779;SDS011;29273;49.962;9.768;2024-03-02T12:55:57;4.88;;;4.05;;
38779;SDS011;29273;49.962;9.768;2024-03-02T12:58:23;4.13;;;3.72;;
38779;SDS011;29273;49.962;9.768;2024-03-02T13:00:49;4.50;;;4.03;;
38779;SDS011;29273;49.962;9.768;2024-03-02T13:03:14;4.22;;;3.65;;
38779;SDS011;29273;49.962;9.768;2024-03-02T13:05:47;3.95;;;3.50;;
38779;SDS011;29273;49.962;9.768;2024-03-02T13:08:13;4.47;;;3.05;;
38779;SDS011;29273;49.962;9.768;2024-03-02T13:10:39;4.07;;;3.28;;
38779;SDS011;29273;49.962;9.768;2024-03-02T13:13:06;3.10;;;2.67;;
38779;SDS011;29273;49.962;9.768;2024-03-02T13:15:32;3.38;;;3.08;;
38779;SDS011;29273;49.962;9.768;2024-03-02T13:17:58;3.60;;;3.30;;
38779;SDS011;29273;49.962;9.768;2024-03-02T13:20:29;3.20;;;2.75;;
38779;SDS011;29273;49.962;9.768;2024-03-02T13:22:57;3.35;;;2.83;;
38779;SDS011;29273;49.962;9.768;2024-03-02T13:25:22;4.43;;;3.08;;
38779;SDS011;29273;49.962;9.768;2024-03-02T13:27:48;3.10;;;2.80;;
38779;SDS011;29273;49.962;9.768;2024-03-02T13:30:13;2.97;;;2.67;;
38779;SDS011;29273;49.962;9.768;2024-03-02T13:32:38;2.80;;;2.50;;
38779;SDS011;29273;49.962;9.768;2024-03-02T13:35:04;3.03;;;2.60;;
38779;SDS011;29273;49.962;9.768;2024-03-02T13:37:30;2.45;;;2.22;;
38779;SDS011;29273;49.962;9.768;2024-03-02T13:39:55;2.75;;;2.53;;
38779;SDS011;29273;49.962;9.768;2024-03-02T13:42:21;3.40;;;2.70;;
38779;SDS011;29273;49.962;9.768;2024-03-02T13:44:46;2.97;;;2.58;;
38779;SDS011;29273;49.962;9.768;2024-03-02T13:47:13;2.53;;;2.33;;
38779;SDS011;29273;49.962;9.768;2024-03-02T13:49:38;2.50;;;2.13;;
38779;SDS011;29273;49.962;9.768;2024-03-02T13:52:08;2.60;;;2.20;;
38779;SDS011;29273;49.962;9.768;2024-03-02T13:54:38;2.40;;;2.20;;
38779;SDS011;29273;49.962;9.768;2024-03-02T13:57:08;2.40;;;2.08;;
38779;SDS011;29273;49.962;9.768;2024-03-02T13:59:34;3.13;;;2.33;;
38779;SDS011;29273;49.962;9.768;2024-03-02T14:02:03;2.47;;;2.28;;
38779;SDS011;29273;49.962;9.768;2024-03-02T14:04:30;2.65;;;2.35;;
38779;SDS011;29273;49.962;9.768;2024-03-02T14:07:00;2.35;;;2.03;;
38779;SDS011;29273;49.962;9.768;2024-03-02T14:09:26;2.33;;;2.13;;
38779;SDS011;29273;49.962;9.768;2024-03-02T14:11:52;2.40;;;2.20;;
38779;SDS011;29273;49.962;9.768;2024-03-02T14:14:18;2.13;;;1.88;;
38779;SDS011;29273;49.962;9.768;2024-03-02T14:16:44;2.17;;;1.95;;
38779;SDS011;29273;49.962;9.768;2024-03-02T14:19:12;2.30;;;2.10;;
38779;SDS011;29273;49.962;9.768;2024-03-02T14:21:38;2.22;;;1.98;;
38779;SDS011;29273;49.962;9.768;2024-03-02T14:24:05;2.38;;;1.83;;
38779;SDS011;29273;49.962;9.768;2024-03-02T14:26:32;2.20;;;2.00;;
38779;SDS011;29273;49.962;9.768;2024-03-02T14:28:58;2.17;;;1.73;;
38779;SDS011;29273;49.962;9.768;2024-03-02T14:31:24;2.78;;;2.25;;
38779;SDS011;29273;49.962;9.768;2024-03-02T14:33:50;2.50;;;2.30;;
38779;SDS011;29273;49.962;9.768;2024-03-02T14:36:15;2.95;;;2.40;;
38779;SDS011;29273;49.962;9.768;2024-03-02T14:38:41;2.33;;;2.03;;
38779;SDS011;29273;49.962;9.768;2024-03-02T14:41:07;2.65;;;2.30;;
38779;SDS011;29273;49.962;9.768;2024-03-02T14:43:32;2.53;;;2.33;;
38779;SDS011;29273;49.962;9.768;2024-03-02T14:45:58;2.63;;;2.42;;
38779;SDS011;29273;49.962;9.768;2024-03-02T14:48:24;3.35;;;2.13;;
38779;SDS011;29273;49.962;9.768;2024-03-02T14:50:49;2.65;;;2.30;;
38779;SDS011;29273;49.962;9.768;2024-03-02T14:53:16;2.63;;;2.42;;
38779;SDS011;29273;49.962;9.768;2024-03-02T14:55:41;2.65;;;2.45;;
38779;SDS011;29273;49.962;9.768;2024-03-02T14:58:07;2.95;;;2.65;;
38779;SDS011;29273;49.962;9.768;2024-03-02T15:00:33;3.65;;;2.50;;
38779;SDS011;29273;49.962;9.768;2024-03-02T15:02:59;2.90;;;2.60;;
38779;SDS011;29273;49.962;9.768;2024-03-02T15:05:24;2.05;;;1.85;;